Time;durP1;ratioP1;P1;durP2;ratioP2;P2;SDS_P1;SDS_P2;PMS_P1;PMS_P2;Temp;Humidity;BMP_temperature;BMP_pressure;BME280_temperature;BME280_humidity;BME280_pressure;Samples;Min_cycle;Max_cycle;Signal;HPM_P1;HPM_P2
2023/01/24 00:01:25;;;;;;;26.07;17.10;;;2.00;99.90;;;-141.84;82.63;18797.78;5033434;28;20233;-60
2023/01/24 00:03:53;;;;;;;25.10;16.13;;;2.00;99.90;;;-141.84;83.19;18777.47;5033225;28;20309;-61
2023/01/24 00:06:22;;;;;;;26.40;16.73;;;2.00;99.90;;;-141.84;83.45;18761.22;5033000;28;20232;-60
2023/01/24 00:08:50;;;;;;;25.67;16.80;;;2.00;99.90;;;-141.84;83.76;18747.00;5033790;28;20227;-63
2023/01/24 00:11:19;;;;;;;27.10;18.00;;;1.90;99.90;;;-141.84;83.59;18789.66;5033452;28;20200;-61
2023/01/24 00:13:47;;;;;;;24.77;17.43;;;2.00;99.90;;;-141.84;83.47;18753.09;5033537;28;20202;-61
2023/01/24 00:16:19;;;;;;;28.40;17.67;;;2.00;99.90;;;-141.84;83.00;18789.66;5033258;28;20230;-63
2023/01/24 00:18:49;;;;;;;28.83;18.50;;;2.00;99.90;;;-141.84;82.46;18824.22;5033317;28;20717;-61
2023/01/24 00:21:21;;;;;;;27.03;17.47;;;2.00;99.90;;;-141.84;82.77;18814.03;5032989;28;20221;-61
2023/01/24 00:23:52;;;;;;;26.63;18.20;;;2.00;99.90;;;-141.84;82.85;18781.53;5032946;28;20897;-61
2023/01/24 00:26:22;;;;;;;29.93;17.60;;;1.90;99.90;;;-141.84;83.03;18769.34;5032453;28;20301;-61
2023/01/24 00:28:51;;;;;;;26.90;17.57;;;2.00;99.90;;;-141.84;82.47;18769.34;5033098;28;20673;-61
2023/01/24 00:31:20;;;;;;;27.90;17.60;;;2.00;99.90;;;-141.84;82.67;18809.97;5032607;28;20222;-61
2023/01/24 00:33:50;;;;;;;25.00;16.40;;;2.00;99.90;;;-141.84;82.68;18793.72;5032751;28;20697;-61
2023/01/24 00:36:18;;;;;;;27.90;18.93;;;2.00;99.90;;;-141.84;83.03;18803.88;5032707;28;20226;-60
2023/01/24 00:38:46;;;;;;;26.73;17.43;;;2.00;99.90;;;-141.84;82.62;18807.94;5032461;28;20300;-60
2023/01/24 00:41:15;;;;;;;29.13;17.63;;;2.00;99.90;;;-141.84;82.83;18781.53;5025128;28;20194;-62
2023/01/24 00:43:43;;;;;;;29.47;18.57;;;2.00;99.90;;;-141.84;82.88;18797.78;5052559;28;20229;-60
2023/01/24 00:46:11;;;;;;;26.40;17.20;;;2.00;99.90;;;-141.84;82.95;18769.34;5052323;28;20233;-61
2023/01/24 00:48:39;;;;;;;28.73;17.43;;;2.00;99.90;;;-141.84;83.11;18763.25;5052134;28;20661;-62
2023/01/24 00:51:09;;;;;;;25.30;16.80;;;2.00;99.90;;;-141.84;83.13;18761.22;5052286;28;20713;-61
2023/01/24 00:53:38;;;;;;;28.23;18.03;;;1.90;99.90;;;-141.84;81.82;18779.50;5051871;28;20275;-60
2023/01/24 00:56:07;;;;;;;24.80;16.80;;;2.10;99.90;;;-141.84;81.77;18789.66;5052328;28;20233;-59
2023/01/24 00:58:36;;;;;;;26.70;17.17;;;2.00;99.90;;;-141.84;82.58;18763.25;5052279;28;20233;-60
2023/01/24 01:01:05;;;;;;;26.23;17.03;;;1.90;99.90;;;-141.84;83.01;18773.41;5051785;28;20228;-61
2023/01/24 01:03:33;;;;;;;26.80;17.40;;;1.90;99.90;;;-141.84;82.72;18789.66;5052011;28;20225;-60
2023/01/24 01:06:05;;;;;;;25.43;17.17;;;2.00;99.90;;;-141.84;82.12;18765.28;5051634;28;20221;-62
2023/01/24 01:08:34;;;;;;;27.47;16.60;;;2.00;99.90;;;-141.84;82.34;18777.47;5032234;28;20434;-62
2023/01/24 01:11:03;;;;;;;27.57;16.77;;;2.00;99.90;;;-141.84;82.71;18761.22;5032262;28;20666;-62
2023/01/24 01:13:32;;;;;;;25.83;17.40;;;2.00;99.90;;;-141.84;82.90;18769.34;5031713;28;20664;-60
2023/01/24 01:16:05;;;;;;;27.90;17.17;;;2.00;99.90;;;-141.84;83.08;18765.28;5031872;28;20605;-61
2023/01/24 01:18:36;;;;;;;25.90;17.20;;;2.00;99.90;;;-141.84;82.39;18761.22;5031844;28;20253;-60
2023/01/24 01:21:06;;;;;;;28.07;17.37;;;2.10;99.90;;;-141.84;82.66;18775.44;5032003;28;20238;-61
2023/01/24 01:23:36;;;;;;;26.17;17.93;;;2.00;99.90;;;-141.84;81.99;18759.19;5042535;28;20209;-61
2023/01/24 01:26:07;;;;;;;27.00;16.47;;;2.00;99.90;;;-141.84;81.74;18777.47;5052177;28;20581;-61
2023/01/24 01:28:35;;;;;;;24.20;16.40;;;2.10;99.90;;;-141.84;82.07;18787.63;5051932;28;20735;-61
2023/01/24 01:31:04;;;;;;;25.53;16.23;;;2.00;99.90;;;-141.84;82.21;18773.41;5051258;28;20226;-62
2023/01/24 01:33:32;;;;;;;23.83;16.03;;;2.00;99.90;;;-141.84;82.30;18789.66;5051818;28;20395;-61
2023/01/24 01:36:00;;;;;;;27.53;16.80;;;2.00;99.90;;;-141.84;82.37;18755.13;5049060;28;20256;-61
2023/01/24 01:38:29;;;;;;;24.13;16.30;;;2.00;99.90;;;-141.84;83.04;18771.38;5051451;28;20595;-63
2023/01/24 01:40:59;;;;;;;26.07;16.40;;;1.90;99.90;;;-141.84;82.37;18789.66;5051876;28;20193;-60
2023/01/24 01:43:30;;;;;;;23.30;16.33;;;2.00;99.90;;;-141.84;82.42;18749.03;5051110;28;20278;-61
2023/01/24 01:46:08;;;;;;;26.20;17.10;;;1.90;99.90;;;-141.84;82.59;18759.19;5051026;28;20221;-61
2023/01/24 01:48:44;;;;;;;24.90;15.73;;;1.90;99.90;;;-141.84;82.51;18775.44;5050861;28;20716;-61
2023/01/24 01:51:18;;;;;;;24.27;16.47;;;1.90;99.90;;;-141.84;82.98;18753.09;5050890;28;20225;-61
2023/01/24 01:53:59;;;;;;;24.07;16.47;;;1.80;99.90;;;-141.84;82.66;18759.19;5050638;28;20228;-61
2023/01/24 01:56:35;;;;;;;23.97;15.53;;;1.90;99.90;;;-141.84;82.69;18755.13;5051224;28;20608;-60
2023/01/24 01:59:10;;;;;;;21.53;15.07;;;1.90;99.90;;;-141.84;82.14;18771.38;5051782;28;20189;-60
2023/01/24 02:01:38;;;;;;;25.63;15.97;;;1.90;99.90;;;-141.84;82.58;18799.81;5050986;28;20230;-60
2023/01/24 02:04:11;;;;;;;26.80;17.27;;;1.90;99.90;;;-141.84;82.72;18773.41;5050784;28;20278;-60
2023/01/24 02:06:53;;;;;;;26.40;16.17;;;1.90;99.90;;;-141.84;82.22;18773.41;5035796;28;20226;-63
2023/01/24 02:09:27;;;;;;;23.27;15.60;;;1.90;99.90;;;-141.84;81.94;18781.53;5042282;28;20214;-63
2023/01/24 02:12:03;;;;;;;26.87;16.97;;;2.00;99.90;;;-141.84;80.96;18771.38;5050169;28;20716;-64
2023/01/24 02:17:21;;;;;;;24.10;15.87;;;2.00;99.90;;;-141.84;81.54;18771.38;5050959;28;20186;-62
2023/01/24 02:20:08;;;;;;;23.20;15.90;;;2.00;99.90;;;-141.84;81.65;18785.59;5050857;28;20665;-63
2023/01/24 02:22:53;;;;;;;24.83;15.27;;;1.90;99.90;;;-141.84;82.01;18793.72;5050352;28;20268;-63
2023/01/24 02:25:35;;;;;;;23.90;15.23;;;1.90;99.90;;;-141.84;81.59;18769.34;5050619;28;20260;-64
2023/01/24 02:28:07;;;;;;;23.10;16.23;;;2.00;99.90;;;-141.84;81.36;18781.53;5050056;28;20234;-63
2023/01/24 02:30:35;;;;;;;22.83;15.27;;;2.00;99.90;;;-141.84;81.77;18777.47;5050380;28;20225;-63
2023/01/24 02:33:12;;;;;;;22.33;15.57;;;2.00;99.90;;;-141.84;81.41;18763.25;5041114;28;20642;-62
2023/01/24 02:35:40;;;;;;;20.43;14.40;;;2.00;99.90;;;-141.84;81.50;18799.81;5030592;28;20228;-63
2023/01/24 02:38:18;;;;;;;23.97;16.60;;;2.00;99.90;;;-141.84;82.06;18771.38;5047477;28;20227;-63
2023/01/24 02:40:51;;;;;;;23.80;15.83;;;2.00;99.90;;;-141.84;82.09;18795.75;5050673;28;20226;-63
2023/01/24 02:43:26;;;;;;;23.63;14.50;;;2.00;99.90;;;-141.84;81.67;18767.31;5050238;28;20224;-63
2023/01/24 02:45:54;;;;;;;21.20;13.10;;;2.00;99.90;;;-141.84;80.73;18814.03;5050185;28;20724;-63
2023/01/24 02:48:22;;;;;;;20.90;14.43;;;2.10;99.90;;;-141.84;81.06;18777.47;5050280;28;20224;-62
2023/01/24 02:53:36;;;;;;;22.13;14.37;;;2.10;99.90;;;-141.84;81.41;18761.22;5049886;28;20225;-62
2023/01/24 02:58:54;;;;;;;20.80;14.23;;;2.00;99.90;;;-141.84;82.03;18765.28;5030362;28;20217;-64
2023/01/24 03:01:24;;;;;;;21.63;14.40;;;1.90;99.90;;;-141.84;81.82;18783.56;5044458;28;20728;-63
2023/01/24 03:03:52;;;;;;;23.83;15.37;;;2.00;99.90;;;-141.84;81.28;18809.97;5029832;28;20226;-62
2023/01/24 03:06:20;;;;;;;24.73;14.37;;;2.10;99.90;;;-141.84;80.81;18789.66;5031785;28;20225;-63
2023/01/24 03:08:49;;;;;;;23.20;14.93;;;2.10;99.90;;;-141.84;80.76;18844.53;5049910;28;20220;-62
2023/01/24 03:11:17;;;;;;;22.73;14.23;;;2.10;99.90;;;-141.84;80.87;18812.00;5049907;28;20216;-63
2023/01/24 03:35:58;;;;;;;19.53;13.60;;;2.00;99.90;;;-141.84;80.87;18761.22;5033805;28;20642;-63
2023/01/24 03:41:12;;;;;;;20.97;14.10;;;1.90;99.90;;;-141.84;81.73;18828.28;5020742;28;20194;-63
2023/01/24 03:43:40;;;;;;;21.23;13.70;;;1.80;99.90;;;-141.84;81.71;18785.59;5053631;28;20233;-62
2023/01/24 03:46:08;;;;;;;20.40;13.73;;;1.80;99.90;;;-141.84;81.72;18805.91;5037796;28;20238;-62
2023/01/24 03:48:38;;;;;;;18.43;12.87;;;1.90;99.90;;;-141.84;81.96;18771.38;5032932;28;20652;-63
2023/01/24 03:53:52;;;;;;;19.37;12.93;;;1.80;99.90;;;-141.84;82.39;18771.38;5033060;28;20312;-63
2023/01/24 03:56:20;;;;;;;21.17;14.63;;;1.80;99.90;;;-141.84;82.81;18749.03;5033242;28;20234;-62
2023/01/24 03:58:48;;;;;;;17.67;13.20;;;1.70;99.90;;;-141.84;83.03;18767.31;5033529;28;20200;-63
2023/01/24 04:01:16;;;;;;;21.50;14.53;;;1.70;99.90;;;-141.84;82.72;18769.34;5033207;28;20230;-62
2023/01/24 04:03:46;;;;;;;21.43;13.83;;;1.70;99.90;;;-141.84;82.20;18777.47;5033105;28;20256;-62
2023/01/24 04:06:14;;;;;;;18.27;13.13;;;1.80;99.90;;;-141.84;82.07;18763.25;5032334;28;20240;-62
2023/01/24 04:08:42;;;;;;;19.83;14.00;;;1.80;99.90;;;-141.84;82.15;18767.31;5013309;28;20247;-62
2023/01/24 04:11:10;;;;;;;19.57;12.77;;;1.80;99.90;;;-141.84;81.79;18775.44;5015167;28;20204;-63
2023/01/24 04:13:38;;;;;;;21.50;13.90;;;1.80;99.90;;;-141.84;81.35;18769.34;5032787;28;20226;-63
2023/01/24 04:16:08;;;;;;;19.30;12.70;;;1.90;99.90;;;-141.84;80.62;18777.47;5033013;28;20237;-63
2023/01/24 04:18:37;;;;;;;19.97;13.63;;;1.90;99.90;;;-141.84;80.76;18814.03;5032858;28;20228;-63
2023/01/24 04:21:07;;;;;;;20.60;13.90;;;2.00;99.90;;;-141.84;81.01;18820.16;5032983;28;20218;-63
2023/01/24 04:23:35;;;;;;;20.03;13.53;;;2.00;99.90;;;-141.84;80.94;18820.16;5031547;28;20233;-62
2023/01/24 04:26:03;;;;;;;19.97;12.70;;;2.00;99.90;;;-141.84;81.24;18793.72;5032813;28;20209;-63
2023/01/24 04:28:32;;;;;;;20.57;12.90;;;1.90;99.90;;;-141.84;81.43;18795.75;5032793;28;20305;-64
2023/01/24 04:31:03;;;;;;;20.57;13.53;;;1.90;99.90;;;-141.84;81.20;18785.59;5032474;28;20844;-63
2023/01/24 04:33:31;;;;;;;17.97;12.63;;;1.90;99.90;;;-141.84;81.10;18781.53;5032818;28;20229;-63
2023/01/24 04:36:00;;;;;;;19.33;13.47;;;1.90;99.90;;;-141.84;80.65;18787.63;5031762;28;20717;-62
2023/01/24 04:38:30;;;;;;;18.97;13.40;;;2.00;99.90;;;-141.84;81.20;18807.94;5013537;28;20203;-63
2023/01/24 04:41:00;;;;;;;17.97;12.73;;;1.80;99.90;;;-141.84;81.43;18785.59;5022792;28;20603;-62
2023/01/24 04:43:28;;;;;;;19.73;13.63;;;1.80;99.90;;;-141.84;81.25;18785.59;5052304;28;20237;-62
2023/01/24 04:45:58;;;;;;;21.70;13.73;;;1.80;99.90;;;-141.84;81.30;18785.59;5052406;28;20232;-62
2023/01/24 04:48:26;;;;;;;18.97;13.73;;;1.80;99.90;;;-141.84;81.24;18791.69;5052813;28;20231;-60
2023/01/24 04:51:00;;;;;;;20.00;13.27;;;1.80;99.90;;;-141.84;81.71;18781.53;5052219;28;20738;-59
2023/01/24 04:53:30;;;;;;;21.37;13.23;;;1.80;99.90;;;-141.84;81.95;18781.53;5042144;28;20562;-59
2023/01/24 04:56:01;;;;;;;20.43;13.30;;;1.80;99.90;;;-141.84;81.05;18797.78;5012890;28;20312;-61
2023/01/24 04:58:30;;;;;;;19.17;13.50;;;1.90;99.90;;;-141.84;80.94;18812.00;5012521;28;20233;-61
2023/01/24 05:00:58;;;;;;;18.00;13.27;;;1.90;99.90;;;-141.84;80.92;18779.50;5012249;28;20233;-63
2023/01/24 05:03:28;;;;;;;18.60;12.70;;;1.90;99.90;;;-141.84;80.78;18826.25;5012652;28;20276;-60
2023/01/24 05:05:56;;;;;;;18.13;13.17;;;1.90;99.90;;;-141.84;80.76;18805.91;5012414;28;20226;-61
2023/01/24 05:08:26;;;;;;;20.53;13.93;;;1.90;99.90;;;-141.84;81.33;18781.53;5021462;28;20261;-59
2023/01/24 05:10:55;;;;;;;17.90;11.87;;;1.90;99.90;;;-141.84;81.10;18783.56;5032475;28;20212;-60
2023/01/24 05:13:23;;;;;;;20.43;13.47;;;1.90;99.90;;;-141.84;81.27;18765.28;5031900;28;20358;-61
2023/01/24 05:15:52;;;;;;;19.20;13.27;;;1.90;99.90;;;-141.84;80.50;18809.97;5031964;28;20226;-61
2023/01/24 05:18:21;;;;;;;19.33;13.20;;;1.90;99.90;;;-141.84;81.08;18787.63;5031931;28;20721;-61
2023/01/24 05:20:49;;;;;;;19.53;12.80;;;1.80;99.90;;;-141.84;81.89;18793.72;5032053;28;20236;-60
2023/01/24 05:23:17;;;;;;;18.20;12.90;;;1.80;99.90;;;-141.84;81.89;18799.81;5031992;28;20264;-61
2023/01/24 05:25:45;;;;;;;18.43;13.03;;;1.80;99.90;;;-141.84;81.77;18789.66;5032095;28;20198;-62
2023/01/24 05:28:15;;;;;;;18.80;13.40;;;1.80;99.90;;;-141.84;81.32;18818.09;5031513;28;20310;-61
2023/01/24 05:30:43;;;;;;;20.83;13.20;;;1.80;99.90;;;-141.84;81.49;18757.16;5031399;28;20678;-61
2023/01/24 05:33:11;;;;;;;20.67;13.50;;;1.80;99.90;;;-141.84;81.89;18795.75;5031530;28;20275;-62
2023/01/24 05:35:40;;;;;;;18.77;12.97;;;1.70;99.90;;;-141.84;82.15;18751.06;5031687;28;20225;-62
2023/01/24 05:38:08;;;;;;;19.03;12.93;;;1.80;99.90;;;-141.84;82.16;18807.94;5015587;28;20306;-61
2023/01/24 05:40:37;;;;;;;19.13;12.60;;;1.70;99.90;;;-141.84;81.78;18793.72;5015237;28;20349;-60
2023/01/24 05:43:07;;;;;;;19.67;12.77;;;1.80;99.90;;;-141.84;81.01;18799.81;5051106;28;20578;-62
2023/01/24 05:45:36;;;;;;;19.53;12.83;;;1.90;99.90;;;-141.84;80.71;18799.81;5051171;28;20887;-62
2023/01/24 05:48:05;;;;;;;20.10;13.23;;;1.90;99.90;;;-141.84;81.41;18789.66;5050256;28;20225;-61
2023/01/24 05:50:33;;;;;;;18.63;12.77;;;1.90;99.90;;;-141.84;81.44;18765.28;5044155;28;20233;-60
2023/01/24 05:53:03;;;;;;;19.90;14.30;;;1.90;99.90;;;-141.84;80.99;18809.97;5024861;28;20201;-60
2023/01/24 05:55:31;;;;;;;19.20;13.07;;;2.00;99.90;;;-141.84;80.97;18793.72;5011115;28;20239;-60
2023/01/24 05:58:00;;;;;;;20.40;13.63;;;1.90;99.90;;;-141.84;80.33;18805.91;5011370;28;20223;-60
2023/01/24 06:00:28;;;;;;;20.10;12.87;;;2.00;99.90;;;-141.84;79.62;18799.81;5015990;28;20249;-60
2023/01/24 06:03:02;;;;;;;19.73;13.30;;;2.10;99.90;;;-141.84;80.45;18793.72;5031003;28;20223;-60
2023/01/24 06:05:31;;;;;;;18.30;12.63;;;2.00;99.90;;;-141.84;79.85;18781.53;5030986;28;20246;-61
2023/01/24 06:07:59;;;;;;;18.53;12.97;;;2.10;99.90;;;-141.84;80.14;18797.78;5016544;28;20210;-61
2023/01/24 06:10:27;;;;;;;25.27;14.00;;;1.90;99.90;;;-141.84;80.69;18793.72;5011152;28;20226;-62
2023/01/24 06:12:55;;;;;;;19.77;14.13;;;2.00;99.90;;;-141.84;80.85;18787.63;5010901;28;20229;-60
2023/01/24 06:15:23;;;;;;;20.40;13.07;;;1.90;99.90;;;-141.84;81.66;18759.19;5011370;28;20429;-62
2023/01/24 06:17:51;;;;;;;18.87;13.57;;;1.80;99.90;;;-141.84;81.82;18785.59;5018583;28;20688;-60
2023/01/24 06:20:21;;;;;;;19.83;12.93;;;1.80;99.90;;;-141.84;81.13;18781.53;5031156;28;20199;-60
2023/01/24 06:22:54;;;;;;;21.70;13.90;;;1.90;99.90;;;-141.84;81.38;18771.38;5031343;28;20209;-60
2023/01/24 06:25:25;;;;;;;18.10;12.67;;;1.80;99.90;;;-141.84;81.77;18767.31;5030752;28;20347;-60
2023/01/24 06:27:54;;;;;;;21.57;13.33;;;1.80;99.90;;;-141.84;82.14;18791.69;5030693;28;20225;-61
2023/01/24 06:30:23;;;;;;;21.97;13.77;;;1.70;99.90;;;-141.84;82.58;18765.28;5025673;28;20229;-60
2023/01/24 06:33:21;;;;;;;21.90;13.73;;;1.70;99.90;;;-141.84;82.72;18742.94;5011092;28;20245;-61
2023/01/24 06:36:18;;;;;;;19.73;13.77;;;1.70;99.90;;;-141.84;82.66;18724.66;5010719;28;20229;-60
2023/01/24 06:38:47;;;;;;;20.07;13.73;;;1.70;99.90;;;-141.84;83.11;18793.72;5010686;28;20234;-60
2023/01/24 06:41:17;;;;;;;21.07;13.33;;;1.70;99.90;;;-141.84;82.90;18785.59;5024504;28;20193;-63
2023/01/24 06:43:47;;;;;;;23.17;14.43;;;1.70;99.90;;;-141.84;82.03;18757.16;5030920;28;20182;-61
2023/01/24 06:46:15;;;;;;;18.60;13.30;;;1.80;99.90;;;-141.84;81.50;18791.69;5030078;28;20234;-61
2023/01/24 06:48:45;;;;;;;22.47;14.43;;;1.80;99.90;;;-141.84;81.93;18765.28;5030463;28;20299;-61
2023/01/24 06:51:15;;;;;;;23.93;14.83;;;1.70;99.90;;;-141.84;81.75;18789.66;5030037;28;20717;-60
2023/01/24 06:53:43;;;;;;;21.43;13.40;;;1.70;99.90;;;-141.84;81.60;18793.72;5017904;28;20231;-61
2023/01/24 06:56:11;;;;;;;20.60;13.93;;;1.70;99.90;;;-141.84;81.94;18771.38;5011091;28;20234;-60
2023/01/24 06:58:39;;;;;;;20.93;14.30;;;1.70;99.90;;;-141.84;81.52;18767.31;5029662;28;20324;-60
2023/01/24 07:01:07;;;;;;;20.30;13.73;;;1.80;99.90;;;-141.84;81.41;18822.19;5029910;28;20233;-61
2023/01/24 07:03:36;;;;;;;21.53;14.77;;;1.80;99.90;;;-141.84;81.32;18783.56;5030096;28;20229;-61
2023/01/24 07:06:04;;;;;;;21.83;14.27;;;1.90;99.90;;;-141.84;79.90;18773.41;5030200;28;20564;-60
2023/01/24 07:08:34;;;;;;;21.30;13.57;;;2.00;99.90;;;-141.84;80.83;18767.31;5029751;28;20217;-61
2023/01/24 07:11:02;;;;;;;21.17;14.00;;;1.80;99.90;;;-141.84;81.04;18781.53;5030740;28;20230;-61
2023/01/24 07:13:30;;;;;;;18.27;12.87;;;1.90;99.90;;;-141.84;81.33;18763.25;5029816;28;20233;-61
2023/01/24 07:16:02;;;;;;;18.97;13.27;;;1.80;99.90;;;-141.84;81.33;18747.00;5030101;28;20736;-61
2023/01/24 07:18:31;;;;;;;21.13;13.97;;;1.80;99.90;;;-141.84;80.16;18765.28;5030098;28;20234;-61
2023/01/24 07:21:00;;;;;;;17.20;12.83;;;1.90;99.90;;;-141.84;80.81;18757.16;5030057;28;20221;-61
2023/01/24 07:23:29;;;;;;;18.30;12.80;;;1.70;99.90;;;-141.84;81.16;18791.69;5029998;28;20209;-60
2023/01/24 07:26:00;;;;;;;18.87;12.83;;;1.70;99.90;;;-141.84;81.27;18789.66;5030626;28;20630;-60
2023/01/24 07:28:28;;;;;;;19.20;12.60;;;1.80;99.90;;;-141.84;81.85;18749.03;5029596;28;20234;-60
2023/01/24 07:30:57;;;;;;;16.70;11.67;;;1.70;99.90;;;-141.84;81.45;18777.47;5029952;28;20233;-60
2023/01/24 07:33:25;;;;;;;20.17;12.20;;;1.60;99.90;;;-141.84;80.83;18799.81;5029619;28;20655;-61
2023/01/24 07:35:53;;;;;;;16.27;11.43;;;1.70;99.90;;;-141.84;81.04;18767.31;5030089;28;20217;-61
2023/01/24 07:38:21;;;;;;;17.17;12.07;;;1.70;99.90;;;-141.84;81.13;18781.53;5030071;28;20209;-61
2023/01/24 07:40:50;;;;;;;18.33;11.93;;;1.70;99.90;;;-141.84;81.15;18763.25;5030266;28;20594;-60
2023/01/24 07:43:20;;;;;;;18.53;12.47;;;1.70;99.90;;;-141.84;80.76;18799.81;5029486;28;20217;-61
2023/01/24 07:45:48;;;;;;;18.13;11.77;;;1.70;99.90;;;-141.84;80.99;18747.00;5029878;28;20647;-60
2023/01/24 07:48:19;;;;;;;17.97;11.80;;;1.70;99.90;;;-141.84;81.59;18757.16;5029904;28;20230;-61
2023/01/24 07:50:47;;;;;;;16.97;11.70;;;1.60;99.90;;;-141.84;81.80;18773.41;5030034;28;20226;-62
2023/01/24 07:53:16;;;;;;;19.53;12.13;;;1.60;99.90;;;-141.84;81.59;18781.53;5028365;28;20202;-61
2023/01/24 07:55:44;;;;;;;19.87;13.30;;;1.70;99.90;;;-141.84;80.59;18795.75;5030324;28;20237;-63
2023/01/24 07:58:31;;;;;;;17.27;12.17;;;1.80;99.90;;;-141.84;79.74;18777.47;5029494;28;20292;-61
2023/01/24 08:00:59;;;;;;;17.67;12.63;;;1.80;99.90;;;-141.84;79.91;18761.22;5029939;28;20236;-59
2023/01/24 08:03:27;;;;;;;17.63;12.17;;;1.80;99.90;;;-141.84;80.04;18773.41;5029315;28;20751;-60
2023/01/24 08:05:56;;;;;;;17.47;12.17;;;1.80;99.90;;;-141.84;79.88;18793.72;5029746;28;20232;-60
2023/01/24 08:08:24;;;;;;;18.77;12.20;;;1.80;99.90;;;-141.84;80.22;18765.28;5029498;28;20210;-60
2023/01/24 08:10:52;;;;;;;18.07;12.13;;;1.80;99.90;;;-141.84;80.56;18779.50;5031326;28;20218;-60
2023/01/24 08:13:21;;;;;;;19.53;12.13;;;1.80;99.90;;;-141.84;79.75;18765.28;5033107;28;20996;-61
2023/01/24 08:15:51;;;;;;;18.07;12.13;;;1.80;99.90;;;-141.84;80.52;18795.75;5033124;28;20225;-61
2023/01/24 08:18:20;;;;;;;18.60;12.63;;;1.80;99.90;;;-141.84;80.74;18803.88;5032578;28;20225;-61
2023/01/24 08:20:49;;;;;;;17.97;11.63;;;1.80;99.90;;;-141.84;80.06;18803.88;5033361;28;20251;-60
2023/01/24 08:23:17;;;;;;;16.63;11.97;;;1.80;99.90;;;-141.84;78.77;18826.25;5032908;28;20213;-61
2023/01/24 08:25:45;;;;;;;15.47;11.17;;;2.00;99.90;;;-141.84;78.85;18795.75;5033605;28;20209;-60
2023/01/24 08:28:13;;;;;;;18.03;11.80;;;1.90;99.90;;;-141.84;79.47;18791.69;5032643;28;20234;-60
2023/01/24 08:30:41;;;;;;;17.27;11.73;;;1.90;99.90;;;-141.84;79.61;18812.00;5032670;28;20633;-60
2023/01/24 08:33:17;;;;;;;17.50;11.73;;;1.90;99.90;;;-141.84;79.77;18795.75;5032937;28;20222;-60
2023/01/24 08:35:45;;;;;;;16.80;11.63;;;1.90;99.90;;;-141.84;80.38;18769.34;5032938;28;20229;-61
2023/01/24 08:38:15;;;;;;;18.17;11.93;;;1.90;99.90;;;-141.84;80.55;18781.53;5033041;28;20210;-60
2023/01/24 08:40:43;;;;;;;16.13;11.97;;;1.90;99.90;;;-141.84;80.34;18781.53;5039699;28;20218;-60
2023/01/24 08:43:17;;;;;;;18.27;12.23;;;1.90;99.90;;;-141.84;79.44;18805.91;5055437;28;20329;-62
2023/01/24 08:45:46;;;;;;;18.37;11.27;;;2.00;99.90;;;-141.84;79.50;18783.56;5052487;28;20221;-64
2023/01/24 08:48:15;;;;;;;15.47;11.33;;;1.90;99.90;;;-141.84;80.16;18777.47;5052394;28;20228;-61
2023/01/24 08:50:43;;;;;;;17.50;11.67;;;1.90;99.90;;;-141.84;80.85;18749.03;5034876;28;20754;-61
2023/01/24 08:53:12;;;;;;;14.83;11.27;;;1.90;99.90;;;-141.84;80.11;18787.63;5032370;28;20208;-61
2023/01/24 08:55:42;;;;;;;16.27;11.70;;;1.90;99.90;;;-141.84;79.24;18824.22;5032270;28;20744;-61
2023/01/24 08:58:10;;;;;;;14.97;11.17;;;2.00;99.90;;;-141.84;79.73;18834.38;5032186;28;20222;-60
2023/01/24 09:00:38;;;;;;;16.10;11.23;;;1.90;99.90;;;-141.84;79.61;18818.09;5032515;28;20222;-62
2023/01/24 09:03:06;;;;;;;22.67;14.30;;;2.00;99.90;;;-141.84;79.40;18826.25;5032402;28;20740;-60
2023/01/24 09:05:36;;;;;;;19.37;13.03;;;2.10;99.90;;;-141.84;78.66;18824.22;5032278;28;20205;-59
2023/01/24 09:08:05;;;;;;;17.40;12.30;;;2.00;99.90;;;-141.84;78.81;18834.38;5032682;28;20612;-61
2023/01/24 09:10:33;;;;;;;17.43;12.00;;;2.00;99.90;;;-141.84;78.33;18830.31;5032313;28;20230;-60
2023/01/24 09:13:01;;;;;;;17.77;11.77;;;2.10;99.90;;;-141.84;78.92;18838.44;5031728;28;20239;-62
2023/01/24 09:15:30;;;;;;;20.43;12.33;;;2.00;99.90;;;-141.84;78.56;18838.44;5031693;28;20234;-62
2023/01/24 09:18:01;;;;;;;17.60;12.13;;;2.10;99.90;;;-141.84;78.06;18840.47;5031690;28;20688;-61
2023/01/24 09:20:29;;;;;;;17.93;12.03;;;2.10;99.90;;;-141.84;78.59;18793.72;5031839;28;20220;-58
2023/01/24 09:22:59;;;;;;;18.20;12.00;;;2.10;99.90;;;-141.84;78.62;18807.94;5032374;28;20226;-60
2023/01/24 09:25:30;;;;;;;20.10;12.60;;;2.10;99.90;;;-141.84;78.26;18832.34;5031664;28;20665;-61
2023/01/24 09:27:58;;;;;;;18.47;11.70;;;2.20;99.90;;;-141.84;77.80;18828.28;5031541;28;20231;-61
2023/01/24 09:30:26;;;;;;;17.20;11.10;;;2.20;99.90;;;-141.84;78.48;18807.94;5031701;28;20217;-62
2023/01/24 09:32:55;;;;;;;18.03;11.90;;;2.10;99.90;;;-141.84;79.01;18773.41;5031901;28;20219;-60
2023/01/24 09:35:23;;;;;;;17.70;12.70;;;2.20;99.90;;;-141.84;78.89;18805.91;5026153;28;20197;-61
2023/01/24 09:37:52;;;;;;;19.57;12.30;;;2.10;99.90;;;-141.84;78.55;18814.03;5026613;28;20218;-61
2023/01/24 09:40:29;;;;;;;22.10;13.10;;;2.10;99.90;;;-141.84;78.92;18840.47;5031372;28;20230;-60
2023/01/24 09:43:07;;;;;;;19.17;13.37;;;2.20;99.90;;;-141.84;77.75;18822.19;5011536;28;20762;-60
2023/01/24 09:45:46;;;;;;;19.50;12.13;;;2.30;99.90;;;-141.84;78.13;18822.19;5017321;28;20241;-62
2023/01/24 09:48:16;;;;;;;19.13;11.63;;;2.20;99.90;;;-141.84;76.81;18809.97;5031478;28;20221;-61
2023/01/24 09:50:50;;;;;;;19.97;12.33;;;2.40;99.90;;;-141.84;76.91;18832.34;5031005;28;20735;-60
2023/01/24 09:53:25;;;;;;;22.87;13.17;;;2.30;99.90;;;-141.84;76.32;18820.16;5031420;28;20214;-62
2023/01/24 09:55:56;;;;;;;18.60;11.97;;;2.40;99.90;;;-141.84;76.86;18844.53;5031938;28;20708;-61
2023/01/24 09:58:32;;;;;;;20.37;11.37;;;2.40;99.90;;;-141.84;76.43;18870.94;5031139;28;20312;-61
2023/01/24 10:01:05;;;;;;;19.00;11.50;;;2.40;99.90;;;-141.84;76.63;18838.44;5030960;28;20720;-61
2023/01/24 10:03:34;;;;;;;30.00;18.97;;;2.50;99.90;;;-141.84;76.58;18852.66;5031283;28;20254;-62
2023/01/24 10:06:15;;;;;;;24.80;16.60;;;2.40;99.90;;;-141.84;76.92;18840.47;5031024;28;20226;-61
2023/01/24 10:08:55;;;;;;;21.17;12.77;;;2.40;99.90;;;-141.84;77.16;18818.09;5031134;28;20225;-61
2023/01/24 10:11:45;;;;;;;22.20;13.13;;;2.40;99.90;;;-141.84;77.30;18854.69;5030858;28;20224;-61
2023/01/24 10:14:34;;;;;;;25.53;14.53;;;2.40;99.90;;;-141.84;77.04;18822.19;5031456;28;20658;-61
2023/01/24 10:17:40;;;;;;;20.87;12.63;;;2.40;99.90;;;-141.84;77.73;18852.66;5030815;28;20202;-62
2023/01/24 10:20:31;;;;;;;22.27;12.77;;;2.30;99.90;;;-141.84;77.02;18834.38;5047894;28;20221;-62
2023/01/24 10:23:12;;;;;;;22.53;12.50;;;2.40;99.90;;;-141.84;77.07;18818.09;5051104;28;20202;-62
2023/01/24 10:25:55;;;;;;;19.17;12.00;;;2.40;99.90;;;-141.84;77.92;18816.06;5050973;28;20223;-61
2023/01/24 10:28:37;;;;;;;21.87;12.53;;;2.40;99.90;;;-141.84;76.10;18862.81;5050676;28;20236;-60
2023/01/24 10:31:16;;;;;;;22.47;13.03;;;2.50;99.90;;;-141.84;76.81;18834.38;5038938;28;20237;-60
2023/01/24 10:33:48;;;;;;;24.83;15.87;;;2.40;99.90;;;-141.84;76.55;18870.94;5010427;28;20719;-60
2023/01/24 10:36:31;;;;;;;20.20;13.40;;;2.50;99.90;;;-141.84;76.30;18830.31;5011945;28;20220;-60
2023/01/24 10:38:59;;;;;;;20.27;13.23;;;2.60;99.90;;;-141.84;75.83;18848.59;5030901;28;20250;-61
2023/01/24 10:41:32;;;;;;;20.33;12.20;;;2.60;99.90;;;-141.84;76.57;18862.81;5030531;28;20194;-61
2023/01/24 10:44:13;;;;;;;20.93;12.03;;;2.60;99.90;;;-141.84;76.16;18838.44;5031111;28;20189;-60
2023/01/24 10:47:31;;;;;;;20.33;13.00;;;2.60;99.90;;;-141.84;76.79;18858.75;5030312;28;20212;-62
2023/01/24 10:50:03;;;;;;;19.13;11.93;;;2.50;99.90;;;-141.84;77.06;18814.03;5030036;28;20240;-60
2023/01/24 10:52:31;;;;;;;19.57;13.37;;;2.50;99.90;;;-141.84;75.49;18875.00;5048692;28;20233;-61